Time;durP1;ratioP1;P1;durP2;ratioP2;P2;SDS_P1;SDS_P2;PMS_P1;PMS_P2;Temp;Humidity;BMP_temperature;BMP_pressure;BME280_temperature;BME280_humidity;BME280_pressure;Samples;Min_cycle;Max_cycle;Signal;HPM_P1;HPM_P2
2022/07/18 00:02:13;;;;;;;10.63;4.45;;;18.20;99.90;;;;;;5034773;28;20091;-78
2022/07/18 00:04:39;;;;;;;6.57;4.00;;;18.30;99.90;;;;;;5038361;28;20106;-77
2022/07/18 00:07:04;;;;;;;8.00;5.05;;;18.30;99.90;;;;;;5018028;28;20041;-78
2022/07/18 00:09:30;;;;;;;8.52;3.75;;;18.30;99.90;;;;;;5032708;28;20042;-77
2022/07/18 00:11:56;;;;;;;7.35;3.38;;;18.40;99.90;;;;;;5032254;28;20038;-78
2022/07/18 00:14:22;;;;;;;7.00;4.43;;;19.70;99.90;;;;;;5032313;28;20034;-77
2022/07/18 00:16:49;;;;;;;7.80;4.40;;;18.40;99.90;;;;;;5014145;28;20041;-78
2022/07/18 00:19:14;;;;;;;7.53;4.22;;;18.20;99.90;;;;;;5032477;28;20064;-78
2022/07/18 00:21:40;;;;;;;6.60;4.70;;;18.10;99.90;;;;;;5014691;28;20123;-77
2022/07/18 00:24:06;;;;;;;5.97;4.20;;;18.10;99.90;;;;;;5032102;28;20037;-78
2022/07/18 00:26:32;;;;;;;5.50;4.50;;;18.00;99.90;;;;;;5014046;28;20041;-77
2022/07/18 00:28:57;;;;;;;8.30;4.95;;;19.40;99.90;;;;;;5014235;28;20037;-77
2022/07/18 00:31:23;;;;;;;7.30;5.00;;;18.00;99.90;;;;;;5032179;28;20049;-77
2022/07/18 00:33:48;;;;;;;9.18;4.63;;;18.10;99.90;;;;;;5031870;28;20033;-78
2022/07/18 00:36:14;;;;;;;9.00;4.82;;;20.00;99.90;;;;;;5031858;28;20494;-78
2022/07/18 00:38:39;;;;;;;9.23;5.13;;;18.70;99.90;;;;;;5014160;28;20041;-77
2022/07/18 00:41:05;;;;;;;8.77;4.47;;;17.90;99.90;;;;;;5014198;28;20049;-77
2022/07/18 00:43:31;;;;;;;6.28;4.32;;;17.80;99.90;;;;;;5028581;28;20071;-77
2022/07/18 00:45:56;;;;;;;7.97;4.88;;;17.90;99.90;;;;;;5031128;28;20041;-77
2022/07/18 00:48:22;;;;;;;8.35;4.90;;;17.70;99.90;;;;;;5034810;28;20391;-77
2022/07/18 00:50:48;;;;;;;8.52;4.38;;;17.90;99.90;;;;;;5031757;28;20045;-77
2022/07/18 00:53:15;;;;;;;6.72;4.60;;;17.70;99.90;;;;;;5030679;28;20034;-77
2022/07/18 00:55:43;;;;;;;5.95;4.53;;;17.90;99.90;;;;;;5031821;28;20029;-77
2022/07/18 00:58:09;;;;;;;9.48;5.22;;;17.80;99.90;;;;;;5033827;28;20080;-77
2022/07/18 01:03:20;;;;;;;7.72;4.97;;;17.40;99.90;;;;;;5033469;28;20053;-77
2022/07/18 01:05:45;;;;;;;6.32;4.45;;;18.60;99.90;;;;;;5033453;28;20048;-77
2022/07/18 01:08:11;;;;;;;7.05;5.30;;;17.50;99.90;;;;;;5034714;28;20507;-78
2022/07/18 01:10:36;;;;;;;7.65;4.72;;;17.70;99.90;;;;;;5038682;28;20038;-77
2022/07/18 01:13:02;;;;;;;5.75;4.25;;;17.70;99.90;;;;;;5036810;28;20498;-77
2022/07/18 01:15:28;;;;;;;6.28;5.07;;;17.40;99.90;;;;;;5034709;28;20025;-78
2022/07/18 01:17:53;;;;;;;8.95;5.05;;;17.50;99.90;;;;;;5034286;28;20060;-78
2022/07/18 01:20:19;;;;;;;6.20;4.07;;;17.60;99.90;;;;;;5033044;28;20522;-77
2022/07/18 01:22:44;;;;;;;9.30;5.03;;;17.30;99.90;;;;;;5032963;28;20045;-78
2022/07/18 01:25:11;;;;;;;4.93;4.07;;;;;;;;;;5016263;28;20049;-77
2022/07/18 01:27:37;;;;;;;7.15;4.80;;;;;;;;;;5034253;28;20052;-77
2022/07/18 01:30:09;;;;;;;9.02;5.60;;;;;;;;;;5032742;28;20041;-77
2022/07/18 01:32:39;;;;;;;9.30;5.43;;;;;;;;;;5034055;28;20037;-77
2022/07/18 01:35:09;;;;;;;6.97;4.63;;;;;;;;;;5032886;28;20064;-77
2022/07/18 01:37:53;;;;;;;7.07;5.03;;;;;;;;;;5032951;28;20499;-77
2022/07/18 01:40:21;;;;;;;7.93;4.65;;;;;;;;;;5034464;28;20087;-77
2022/07/18 01:42:47;;;;;;;9.07;5.10;;;17.40;99.90;;;;;;5033933;28;20120;-78
2022/07/18 01:45:13;;;;;;;9.55;4.80;;;17.20;99.90;;;;;;5033983;28;20124;-77
2022/07/18 01:47:39;;;;;;;6.80;5.35;;;;;;;;;;5033887;28;20126;-77
2022/07/18 01:50:05;;;;;;;8.38;5.70;;;17.30;99.90;;;;;;5034023;28;20037;-77
2022/07/18 01:52:31;;;;;;;7.40;5.28;;;17.20;99.90;;;;;;5035584;28;20045;-77
2022/07/18 01:54:57;;;;;;;11.13;6.03;;;17.00;99.90;;;;;;5018039;28;20549;-77
2022/07/18 01:57:23;;;;;;;9.77;6.00;;;17.10;99.90;;;;;;5033405;28;20038;-77
2022/07/18 01:59:49;;;;;;;8.18;5.53;;;17.20;99.90;;;;;;5015761;28;20079;-77
2022/07/18 02:02:15;;;;;;;12.05;6.35;;;17.20;99.90;;;;;;5015861;28;20515;-77
2022/07/18 02:04:59;;;;;;;11.05;6.22;;;17.10;99.90;;;;;;5015500;28;20124;-77
2022/07/18 02:07:30;;;;;;;8.18;6.18;;;17.60;99.90;;;;;;5015375;28;20033;-78
2022/07/18 02:09:56;;;;;;;10.82;6.45;;;17.10;99.90;;;;;;5036876;28;20081;-77
2022/07/18 02:12:22;;;;;;;12.07;6.00;;;17.10;99.90;;;;;;5036503;28;20064;-77
2022/07/18 02:14:48;;;;;;;8.45;5.50;;;16.90;99.90;;;;;;5015687;28;20122;-77
2022/07/18 02:17:13;;;;;;;10.30;6.38;;;16.70;99.90;;;;;;5033409;28;20037;-77
2022/07/18 02:19:39;;;;;;;7.30;5.78;;;16.90;99.90;;;;;;5033476;28;20033;-77
2022/07/18 02:22:04;;;;;;;12.00;6.03;;;16.90;99.90;;;;;;5015373;28;20447;-77
2022/07/18 02:24:30;;;;;;;10.15;6.68;;;17.10;99.90;;;;;;5015187;28;20044;-78
2022/07/18 02:26:56;;;;;;;8.38;5.28;;;16.80;99.90;;;;;;5033248;28;20064;-78
2022/07/18 02:29:21;;;;;;;9.25;6.72;;;16.90;99.90;;;;;;5033156;28;20045;-77
2022/07/18 02:31:47;;;;;;;10.60;6.43;;;16.90;99.90;;;;;;4998937;28;20414;-77
2022/07/18 02:34:12;;;;;;;11.15;6.10;;;17.50;99.90;;;;;;5015108;28;20091;-78
2022/07/18 02:36:39;;;;;;;9.05;6.20;;;16.60;99.90;;;;;;5032911;28;20409;-78
2022/07/18 02:39:05;;;;;;;10.48;6.18;;;16.60;99.90;;;;;;5032748;28;20037;-77
2022/07/18 02:41:31;;;;;;;9.85;6.15;;;16.90;99.90;;;;;;5015135;28;20037;-78
2022/07/18 02:43:57;;;;;;;10.65;5.95;;;16.80;99.90;;;;;;5032611;28;20113;-77
2022/07/18 02:49:03;;;;;;;12.10;6.45;;;16.70;99.90;;;;;;5090536;28;20048;-69
2022/07/18 02:51:29;;;;;;;10.63;6.40;;;16.70;99.90;;;;;;5092314;28;20405;-69
2022/07/18 02:53:54;;;;;;;10.73;7.03;;;17.60;99.90;;;;;;5092394;28;20036;-69
2022/07/18 02:56:20;;;;;;;11.13;6.75;;;16.70;99.90;;;;;;5074782;28;20143;-69
2022/07/18 02:58:46;;;;;;;9.90;6.85;;;16.60;99.90;;;;;;5074745;28;20158;-69
2022/07/18 03:01:12;;;;;;;9.27;6.13;;;16.70;99.90;;;;;;5092401;28;20165;-69
2022/07/18 03:03:37;;;;;;;10.65;6.95;;;16.60;99.90;;;;;;5074427;28;20039;-69
2022/07/18 03:06:03;;;;;;;9.02;6.75;;;16.60;99.90;;;;;;5092060;28;20040;-69
2022/07/18 03:08:29;;;;;;;10.32;5.70;;;16.50;99.90;;;;;;5074103;28;20042;-69
2022/07/18 03:10:54;;;;;;;11.48;6.85;;;16.70;99.90;;;;;;5092018;28;20036;-67
2022/07/18 03:13:20;;;;;;;9.98;6.10;;;16.60;99.90;;;;;;5090619;28;20032;-69
2022/07/18 03:15:46;;;;;;;10.15;6.55;;;17.00;99.90;;;;;;5073390;28;20413;-70
2022/07/18 03:18:11;;;;;;;10.98;6.45;;;16.50;99.90;;;;;;5073892;28;20032;-69
2022/07/18 03:20:37;;;;;;;11.65;6.93;;;16.60;99.90;;;;;;5056768;28;20040;-69
2022/07/18 03:23:07;;;;;;;10.63;6.85;;;16.40;99.90;;;;;;5057098;28;20496;-69
2022/07/18 03:25:33;;;;;;;12.38;6.47;;;16.30;99.90;;;;;;5073575;28;20105;-69
2022/07/18 03:27:59;;;;;;;8.90;6.57;;;16.60;99.90;;;;;;5073578;28;20036;-69
2022/07/18 03:30:25;;;;;;;11.50;6.15;;;17.00;99.90;;;;;;5091751;28;20040;-70
2022/07/18 03:32:50;;;;;;;9.20;6.35;;;16.50;99.90;;;;;;5073654;28;20436;-69
2022/07/18 03:35:16;;;;;;;11.10;6.53;;;16.40;99.90;;;;;;5073417;28;20043;-69
2022/07/18 03:37:41;;;;;;;8.63;5.90;;;16.50;99.90;;;;;;5091723;28;20094;-69
2022/07/18 03:40:08;;;;;;;11.38;6.47;;;16.50;99.90;;;;;;5073680;28;20059;-69
2022/07/18 03:42:39;;;;;;;11.20;6.03;;;16.30;99.90;;;;;;5063501;28;20036;-70
2022/07/18 03:45:07;;;;;;;10.43;5.60;;;16.50;99.90;;;;;;5091156;28;20040;-69
2022/07/18 03:47:33;;;;;;;9.68;6.38;;;16.40;99.90;;;;;;5090034;28;20036;-69
2022/07/18 03:49:58;;;;;;;10.38;6.80;;;16.50;99.90;;;;;;5089996;28;20150;-69
2022/07/18 03:52:24;;;;;;;9.52;5.82;;;16.50;99.90;;;;;;5073237;28;20556;-69
2022/07/18 03:54:49;;;;;;;9.88;6.43;;;16.40;99.90;;;;;;5089663;28;20482;-69
2022/07/18 03:57:15;;;;;;;10.95;5.75;;;16.50;99.90;;;;;;5091481;28;20040;-69
2022/07/18 03:59:41;;;;;;;12.05;6.03;;;16.60;99.90;;;;;;5090182;28;20040;-69
2022/07/18 04:02:06;;;;;;;10.73;6.00;;;16.80;99.90;;;;;;5091446;28;20138;-68
2022/07/18 04:04:32;;;;;;;8.13;5.60;;;16.70;99.90;;;;;;5089847;28;20040;-69
2022/07/18 04:06:59;;;;;;;11.68;5.57;;;16.60;99.90;;;;;;5091457;28;20063;-69
2022/07/18 04:09:26;;;;;;;9.18;5.82;;;17.00;99.90;;;;;;5091194;28;20444;-69
2022/07/18 04:11:51;;;;;;;9.55;5.82;;;16.60;99.90;;;;;;5090049;28;20044;-70
2022/07/18 04:14:17;;;;;;;11.23;5.57;;;16.50;99.90;;;;;;5072801;28;20062;-69
2022/07/18 04:16:43;;;;;;;8.65;6.10;;;17.70;99.90;;;;;;5091408;28;20039;-69
2022/07/18 04:19:09;;;;;;;11.75;5.80;;;16.80;99.90;;;;;;5090267;28;20047;-69
2022/07/18 04:21:35;;;;;;;8.93;5.88;;;16.60;99.90;;;;;;5091324;28;20040;-69
2022/07/18 04:24:00;;;;;;;8.63;6.00;;;16.70;99.90;;;;;;5072644;28;20187;-69
2022/07/18 04:26:26;;;;;;;12.30;6.93;;;16.60;99.90;;;;;;5089721;28;20094;-70
2022/07/18 04:28:52;;;;;;;12.07;5.72;;;16.70;99.90;;;;;;5091332;28;20035;-69
2022/07/18 04:31:17;;;;;;;10.27;5.60;;;16.50;99.90;;;;;;5091374;28;20132;-68
2022/07/18 04:33:43;;;;;;;11.68;6.07;;;16.40;99.90;;;;;;5093822;28;20036;-68
2022/07/18 04:36:08;;;;;;;10.25;6.15;;;16.80;99.90;;;;;;5094022;28;20103;-69
2022/07/18 04:38:37;;;;;;;12.48;6.35;;;16.70;99.90;;;;;;5093922;28;20507;-68
2022/07/18 04:41:05;;;;;;;9.23;6.45;;;16.60;99.90;;;;;;5094043;28;20058;-68
2022/07/18 04:43:32;;;;;;;7.30;5.25;;;16.80;99.90;;;;;;5094924;28;20036;-68
2022/07/18 04:45:57;;;;;;;14.02;5.88;;;16.60;99.90;;;;;;5076168;28;20043;-69
2022/07/18 04:48:23;;;;;;;8.45;5.60;;;16.60;99.90;;;;;;5076443;28;20040;-68
2022/07/18 04:50:49;;;;;;;9.60;5.40;;;16.70;99.90;;;;;;5059781;28;20070;-68
2022/07/18 04:53:14;;;;;;;11.40;5.50;;;16.70;99.90;;;;;;5076541;28;20409;-68
2022/07/18 04:55:40;;;;;;;12.27;6.68;;;16.60;99.90;;;;;;5059470;28;20028;-68
2022/07/18 04:58:05;;;;;;;9.50;5.72;;;16.70;99.90;;;;;;5094427;28;20040;-68
2022/07/18 05:00:31;;;;;;;10.52;5.28;;;16.80;99.90;;;;;;5076293;28;20067;-68
2022/07/18 05:02:58;;;;;;;7.93;4.80;;;16.90;99.90;;;;;;5076261;28;20184;-68
2022/07/18 05:05:26;;;;;;;7.90;5.00;;;16.90;99.90;;;;;;5076108;28;20101;-69
2022/07/18 05:07:52;;;;;;;12.60;5.55;;;17.00;99.90;;;;;;5076064;28;20045;-69
2022/07/18 05:10:20;;;;;;;8.00;5.10;;;17.00;99.90;;;;;;5094405;28;20109;-69
2022/07/18 05:12:49;;;;;;;7.30;4.70;;;17.20;99.90;;;;;;5094112;28;20493;-69
2022/07/18 05:15:17;;;;;;;8.13;5.25;;;17.00;99.90;;;;;;5075657;28;20098;-71
2022/07/18 05:17:43;;;;;;;9.73;5.20;;;17.60;99.90;;;;;;5076161;28;20067;-69
2022/07/18 05:20:12;;;;;;;6.72;4.15;;;17.20;99.90;;;;;;5093981;28;20067;-69
2022/07/18 05:22:38;;;;;;;9.20;5.13;;;17.40;99.90;;;;;;5075845;28;20511;-68
2022/07/18 05:25:06;;;;;;;7.53;4.65;;;17.30;99.90;;;;;;5075626;28;20032;-72
2022/07/18 05:27:31;;;;;;;6.18;4.50;;;17.30;99.90;;;;;;5059458;28;20047;-68
2022/07/18 05:29:58;;;;;;;8.50;4.50;;;17.30;99.90;;;;;;5076219;28;20040;-69
2022/07/18 05:32:25;;;;;;;8.27;4.80;;;17.50;99.90;;;;;;5075935;28;20050;-70
2022/07/18 05:34:50;;;;;;;7.30;4.60;;;17.30;99.90;;;;;;5075369;28;20040;-70
2022/07/18 05:37:16;;;;;;;8.35;5.00;;;17.40;99.90;;;;;;5058986;28;20038;-69
2022/07/18 05:39:42;;;;;;;7.88;4.72;;;17.20;99.90;;;;;;5093989;28;20036;-69
2022/07/18 05:42:07;;;;;;;8.25;4.13;;;18.30;99.90;;;;;;5077755;28;20063;-70
2022/07/18 05:44:33;;;;;;;7.72;4.57;;;17.60;99.90;;;;;;5093311;28;20044;-69
2022/07/18 05:46:58;;;;;;;6.43;3.95;;;17.30;99.90;;;;;;5092146;28;20043;-69
2022/07/18 05:49:24;;;;;;;10.18;4.65;;;17.80;99.90;;;;;;5075695;28;20054;-70
2022/07/18 05:51:50;;;;;;;8.52;4.07;;;18.40;99.90;;;;;;5075464;28;20489;-69
2022/07/18 05:54:18;;;;;;;9.98;4.07;;;17.60;99.90;;;;;;5092207;28;20643;-70
2022/07/18 05:56:47;;;;;;;6.05;4.25;;;17.90;99.90;;;;;;5092476;28;20374;-70
2022/07/18 05:59:12;;;;;;;6.10;4.28;;;17.80;99.90;;;;;;5110461;28;20044;-70
2022/07/18 06:01:38;;;;;;;7.90;4.05;;;18.00;99.90;;;;;;5095762;28;20035;-71
2022/07/18 06:04:04;;;;;;;7.13;4.20;;;18.50;99.90;;;;;;5111018;28;20040;-70
2022/07/18 06:06:30;;;;;;;5.97;4.07;;;18.20;99.90;;;;;;5088966;28;20061;-70
2022/07/18 06:08:55;;;;;;;6.88;3.78;;;18.20;99.90;;;;;;5071254;28;20127;-66
2022/07/18 06:11:21;;;;;;;8.48;4.55;;;18.30;99.90;;;;;;5089785;28;20048;-70
2022/07/18 06:13:49;;;;;;;7.90;3.80;;;18.40;99.90;;;;;;5089571;28;20039;-71
2022/07/18 06:16:14;;;;;;;6.45;3.80;;;18.50;99.90;;;;;;5071782;28;20398;-70
2022/07/18 06:18:40;;;;;;;5.70;3.72;;;18.70;99.90;;;;;;5089492;28;20032;-67
2022/07/18 06:21:06;;;;;;;5.65;4.03;;;18.60;99.90;;;;;;5071380;28;20101;-69
2022/07/18 06:23:32;;;;;;;9.20;3.75;;;18.70;99.90;;;;;;5071937;28;20431;-69
2022/07/18 06:25:57;;;;;;;5.95;4.40;;;18.90;99.90;;;;;;5071594;28;20035;-69
2022/07/18 06:28:25;;;;;;;6.75;3.50;;;18.90;99.90;;;;;;5071487;28;20088;-68
2022/07/18 06:30:51;;;;;;;6.95;3.60;;;19.10;99.90;;;;;;5071230;28;20042;-69
2022/07/18 06:33:17;;;;;;;6.07;3.25;;;20.60;99.90;;;;;;5089194;28;20061;-68
2022/07/18 06:35:42;;;;;;;6.90;3.35;;;20.20;99.90;;;;;;5072434;28;20032;-69
2022/07/18 06:38:08;;;;;;;7.70;3.30;;;20.20;99.90;;;;;;5092931;28;20536;-69
2022/07/18 06:40:34;;;;;;;6.85;3.30;;;20.10;99.90;;;;;;5077785;28;20399;-70
2022/07/18 06:42:59;;;;;;;5.80;3.35;;;19.60;99.90;;;;;;5099487;28;20039;-71
2022/07/18 06:45:25;;;;;;;10.35;3.72;;;19.80;99.90;;;;;;5080438;28;20036;-71
2022/07/18 06:47:50;;;;;;;5.47;3.10;;;19.80;99.90;;;;;;5073379;28;20040;-71
2022/07/18 06:50:16;;;;;;;6.00;3.25;;;20.40;99.90;;;;;;5074152;28;20046;-71
2022/07/18 06:52:44;;;;;;;5.38;3.88;;;20.40;99.90;;;;;;5057471;28;20036;-71
2022/07/18 06:55:11;;;;;;;9.95;3.00;;;20.30;99.90;;;;;;5090728;28;20040;-72
2022/07/18 06:57:37;;;;;;;9.93;3.33;;;21.30;99.90;;;;;;5091886;28;20485;-70
2022/07/18 07:00:04;;;;;;;10.45;4.00;;;20.60;99.90;;;;;;5074243;28;20397;-70
2022/07/18 07:02:30;;;;;;;7.07;2.63;;;20.90;99.90;;;;;;5073776;28;20032;-70
2022/07/18 07:04:56;;;;;;;6.53;2.88;;;21.00;99.90;;;;;;5073742;28;20043;-70
2022/07/18 07:07:21;;;;;;;6.28;2.78;;;21.00;99.90;;;;;;5057194;28;20079;-70
2022/07/18 07:09:47;;;;;;;4.15;2.53;;;21.00;99.90;;;;;;5092731;28;20036;-70
2022/07/18 07:12:12;;;;;;;12.73;3.15;;;20.90;99.90;;;;;;5088668;28;20042;-72
2022/07/18 07:14:38;;;;;;;5.75;2.35;;;21.60;99.90;;;;;;5088825;28;20096;-70
2022/07/18 07:17:04;;;;;;;11.00;2.70;;;21.70;99.90;;;;;;5070098;28;20044;-71
2022/07/18 07:19:30;;;;;;;6.20;2.72;;;23.00;99.90;;;;;;5090803;28;20069;-70
2022/07/18 07:21:55;;;;;;;5.75;2.35;;;22.20;99.90;;;;;;5090954;28;20183;-70
2022/07/18 07:24:21;;;;;;;4.22;2.75;;;22.00;99.90;;;;;;5087379;28;20039;-71
2022/07/18 07:26:47;;;;;;;3.80;2.25;;;22.10;99.90;;;;;;5091267;28;20635;-70
2022/07/18 07:29:13;;;;;;;6.43;2.30;;;23.00;99.90;;;;;;5073614;28;20046;-70
2022/07/18 07:31:38;;;;;;;4.88;1.92;;;22.30;99.90;;;;;;5055593;28;20408;-71
2022/07/18 07:34:04;;;;;;;4.47;2.10;;;22.50;99.90;;;;;;5073175;28;20032;-72
2022/07/18 07:36:29;;;;;;;3.13;2.00;;;22.20;99.90;;;;;;5056165;28;20478;-70
2022/07/18 07:38:56;;;;;;;3.60;2.03;;;22.30;99.90;;;;;;5073020;28;20055;-70
2022/07/18 07:41:22;;;;;;;3.72;2.00;;;22.60;99.90;;;;;;5073499;28;20071;-70
2022/07/18 07:43:48;;;;;;;7.15;2.17;;;22.60;99.90;;;;;;5072742;28;20128;-70
2022/07/18 07:46:13;;;;;;;6.72;2.20;;;22.20;99.90;;;;;;5073308;28;20083;-69
2022/07/18 07:48:39;;;;;;;5.68;2.40;;;23.30;99.90;;;;;;5090536;28;20046;-70
2022/07/18 07:51:05;;;;;;;2.70;1.85;;;23.50;99.90;;;;;;5072063;28;20044;-70
2022/07/18 07:53:31;;;;;;;3.67;2.53;;;22.90;99.90;;;;;;5101819;28;20528;-70
2022/07/18 07:55:57;;;;;;;6.72;2.05;;;23.00;99.90;;;;;;5082962;28;20031;-70
2022/07/18 07:58:22;;;;;;;4.93;2.15;;;23.90;99.90;;;;;;5082797;28;20032;-70
2022/07/18 08:00:48;;;;;;;11.50;2.97;;;23.60;99.90;;;;;;5108319;28;20047;-70
2022/07/18 08:03:14;;;;;;;4.03;2.25;;;23.30;98.60;;;;;;5077200;28;20119;-69
2022/07/18 08:05:46;;;;;;;5.15;2.20;;;23.50;99.00;;;;;;5056841;28;20063;-70
2022/07/18 08:08:11;;;;;;;3.60;1.88;;;23.50;98.40;;;;;;5076396;28;20413;-71
2022/07/18 08:10:37;;;;;;;4.03;1.70;;;23.70;98.70;;;;;;5077346;28;20040;-69
2022/07/18 08:13:03;;;;;;;3.50;1.88;;;23.70;98.50;;;;;;5077248;28;20538;-70
2022/07/18 08:15:29;;;;;;;4.18;1.65;;;23.50;98.20;;;;;;5101984;28;20035;-69
2022/07/18 08:17:54;;;;;;;4.53;1.80;;;23.40;98.20;;;;;;5095179;28;20400;-70
2022/07/18 08:20:21;;;;;;;7.32;2.60;;;24.20;98.70;;;;;;5095342;28;20036;-70
2022/07/18 08:23:01;;;;;;;4.78;1.83;;;24.40;98.30;;;;;;5059838;28;20055;-69
2022/07/18 08:25:30;;;;;;;7.65;2.13;;;24.50;98.70;;;;;;5095006;28;20520;-69
2022/07/18 08:27:57;;;;;;;5.78;1.92;;;24.00;98.20;;;;;;5059322;28;20044;-70
2022/07/18 08:30:23;;;;;;;6.40;1.85;;;24.10;97.80;;;;;;5100253;28;20036;-70
2022/07/18 08:32:48;;;;;;;6.57;1.80;;;25.10;98.20;;;;;;5086341;28;20138;-71
2022/07/18 08:35:14;;;;;;;2.92;1.63;;;24.40;97.50;;;;;;5105848;28;20029;-70
2022/07/18 08:37:40;;;;;;;3.20;1.58;;;24.80;97.30;;;;;;5101043;28;20032;-70
2022/07/18 08:40:07;;;;;;;8.23;2.08;;;24.60;98.20;;;;;;5101840;28;20194;-70
2022/07/18 08:42:34;;;;;;;4.18;1.80;;;24.50;97.60;;;;;;5083420;28;20131;-72
2022/07/18 08:44:59;;;;;;;3.67;1.70;;;24.80;97.90;;;;;;5097365;28;20040;-70
2022/07/18 08:47:27;;;;;;;6.20;2.47;;;24.70;97.50;;;;;;5094031;22;20041;-70
2022/07/18 08:49:53;;;;;;;6.45;2.40;;;24.40;97.80;;;;;;5073705;28;20124;-70
2022/07/18 08:52:20;;;;;;;7.53;2.38;;;24.60;98.30;;;;;;5074358;28;20163;-71
2022/07/18 08:54:48;;;;;;;6.60;1.80;;;24.00;97.70;;;;;;5055110;28;20035;-71
2022/07/18 08:57:15;;;;;;;6.50;2.30;;;24.70;97.90;;;;;;5074535;28;20101;-71
2022/07/18 08:59:40;;;;;;;10.25;2.55;;;24.60;98.00;;;;;;5056297;28;20040;-71
2022/07/18 09:02:07;;;;;;;4.88;2.10;;;25.40;97.80;;;;;;5056905;28;20412;-72
2022/07/18 09:04:41;;;;;;;3.97;2.05;;;25.10;97.60;;;;;;5074286;28;20051;-71
2022/07/18 09:07:09;;;;;;;4.40;1.92;;;25.20;97.20;;;;;;5056019;28;20040;-72
2022/07/18 09:09:35;;;;;;;4.97;1.77;;;25.40;97.70;;;;;;5056303;28;20094;-72
2022/07/18 09:12:09;;;;;;;4.78;1.85;;;25.40;97.80;;;;;;5056430;28;20123;-71
2022/07/18 09:14:35;;;;;;;8.63;1.80;;;25.60;98.10;;;;;;5039734;28;20481;-72
2022/07/18 09:17:07;;;;;;;4.82;2.00;;;25.80;97.60;;;;;;5056349;28;20033;-72
2022/07/18 09:19:34;;;;;;;6.97;2.53;;;25.70;97.90;;;;;;5056092;28;20041;-72
2022/07/18 09:22:14;;;;;;;3.65;2.20;;;25.50;96.90;;;;;;5074163;28;20049;-71
2022/07/18 09:24:54;;;;;;;7.47;2.85;;;25.70;97.30;;;;;;5055962;28;20494;-72
2022/07/18 09:27:32;;;;;;;5.97;1.88;;;25.70;96.60;;;;;;5056128;28;20041;-71
2022/07/18 09:30:16;;;;;;;4.90;2.03;;;25.90;98.40;;;;;;5064385;28;20098;-71
2022/07/18 09:32:44;;;;;;;3.75;1.60;;;26.00;97.60;;;;;;5089928;28;20051;-71
2022/07/18 09:35:15;;;;;;;5.22;1.70;;;26.20;98.30;;;;;;5093825;28;20473;-72
2022/07/18 09:37:52;;;;;;;5.00;1.92;;;26.80;99.90;;;;;;5059822;28;20043;-72
2022/07/18 09:40:20;;;;;;;6.43;1.83;;;26.20;99.50;;;;;;5076284;28;20108;-72
2022/07/18 09:42:53;;;;;;;4.03;1.85;;;26.30;97.40;;;;;;5082270;28;20044;-70
2022/07/18 09:45:26;;;;;;;8.27;2.00;;;26.60;96.80;;;;;;5055499;28;20048;-70
2022/07/18 09:47:58;;;;;;;5.07;1.75;;;26.30;96.60;;;;;;5073709;28;20119;-69
2022/07/18 09:50:34;;;;;;;7.20;1.75;;;26.60;96.00;;;;;;5072307;28;20037;-70
2022/07/18 09:53:05;;;;;;;5.40;2.08;;;26.40;95.40;;;;;;5039033;28;20461;-70
2022/07/18 09:55:32;;;;;;;5.65;1.85;;;26.30;95.30;;;;;;5055183;28;20127;-72
2022/07/18 09:58:05;;;;;;;5.25;2.20;;;26.50;95.70;;;;;;5055750;28;20471;-72
2022/07/18 10:00:33;;;;;;;4.55;1.77;;;26.40;95.70;;;;;;5073634;28;20089;-72
2022/07/18 10:03:01;;;;;;;5.40;1.85;;;26.00;95.90;;;;;;5055609;28;20524;-72
2022/07/18 10:05:28;;;;;;;4.10;1.90;;;26.40;95.40;;;;;;5072456;28;20036;-70
2022/07/18 10:07:54;;;;;;;4.82;2.17;;;26.90;95.60;;;;;;5073185;28;20404;-71
2022/07/18 10:10:24;;;;;;;6.18;2.10;;;27.00;95.90;;;;;;5073475;28;20111;-72
2022/07/18 10:12:53;;;;;;;5.90;1.70;;;26.80;95.60;;;;;;5073286;28;20048;-72
2022/07/18 10:15:22;;;;;;;8.02;2.17;;;26.90;94.60;;;;;;5038337;28;20489;-72
2022/07/18 10:17:47;;;;;;;5.00;2.30;;;27.00;94.70;;;;;;5055088;28;20040;-72
2022/07/18 10:20:13;;;;;;;6.05;2.17;;;26.70;94.50;;;;;;5072991;28;20043;-71
2022/07/18 10:22:44;;;;;;;2.63;1.60;;;26.90;94.70;;;;;;5055341;28;20140;-72
2022/07/18 10:25:11;;;;;;;4.13;1.67;;;27.10;95.30;;;;;;5072876;28;20066;-72
2022/07/18 10:28:13;;;;;;;8.35;2.50;;;27.20;95.20;;;;;;5071895;28;20062;-71
2022/07/18 10:30:38;;;;;;;3.95;1.98;;;27.30;94.40;;;;;;5072484;28;20052;-71
2022/07/18 10:33:41;;;;;;;6.05;2.22;;;28.30;94.40;;;;;;5054536;28;20156;-72
2022/07/18 10:36:09;;;;;;;10.50;2.53;;;27.60;94.40;;;;;;5077777;28;20032;-72
2022/07/18 10:38:35;;;;;;;4.32;1.92;;;27.40;94.30;;;;;;5057120;28;20115;-72
2022/07/18 10:41:07;;;;;;;6.28;2.13;;;27.40;94.00;;;;;;5047991;28;20086;-71
2022/07/18 10:43:38;;;;;;;5.63;1.80;;;27.10;94.00;;;;;;5038744;28;20510;-71
2022/07/18 10:46:05;;;;;;;5.43;1.93;;;28.10;94.50;;;;;;5050796;28;20029;-71
2022/07/18 10:48:37;;;;;;;3.05;1.95;;;27.20;94.50;;;;;;5050695;28;20062;-71
2022/07/18 10:51:12;;;;;;;5.03;1.98;;;27.20;94.10;;;;;;5047491;28;20040;-72
2022/07/18 10:53:59;;;;;;;3.63;1.90;;;27.30;93.40;;;;;;5049152;28;20520;-72
2022/07/18 10:56:27;;;;;;;4.55;1.88;;;27.50;93.40;;;;;;5068701;28;20047;-72
2022/07/18 10:58:56;;;;;;;8.98;2.38;;;27.50;94.20;;;;;;5059389;28;20037;-72
2022/07/18 11:01:23;;;;;;;4.78;2.45;;;28.20;94.00;;;;;;5051434;28;20497;-72
2022/07/18 11:03:49;;;;;;;5.75;2.83;;;28.20;93.40;;;;;;5065092;28;20038;-71
2022/07/18 11:06:16;;;;;;;5.03;2.35;;;28.20;93.60;;;;;;5052106;28;20123;-72
2022/07/18 11:08:41;;;;;;;6.32;2.88;;;28.00;96.30;;;;;;5070201;28;20470;-71
2022/07/18 11:11:09;;;;;;;5.07;2.42;;;27.90;94.30;;;;;;5058295;28;20079;-71
2022/07/18 11:13:41;;;;;;;6.60;2.83;;;27.90;95.30;;;;;;5066481;28;20032;-71
2022/07/18 11:16:10;;;;;;;5.47;2.72;;;28.00;94.60;;;;;;5058128;28;20037;-72
2022/07/18 11:18:44;;;;;;;7.13;2.42;;;27.90;94.20;;;;;;5052975;28;20036;-71
2022/07/18 11:21:25;;;;;;;4.40;2.40;;;27.70;94.50;;;;;;5037082;28;20040;-73
2022/07/18 11:23:53;;;;;;;8.50;2.20;;;27.40;94.00;;;;;;5037308;28;20066;-72
2022/07/18 11:26:21;;;;;;;3.85;2.15;;;27.50;94.80;;;;;;5053276;28;20049;-72
2022/07/18 11:28:48;;;;;;;6.65;2.35;;;27.40;94.50;;;;;;5036624;28;20040;-72
2022/07/18 11:31:15;;;;;;;4.65;2.50;;;27.10;95.00;;;;;;5052633;28;20037;-71
2022/07/18 11:33:47;;;;;;;5.60;2.75;;;27.30;95.20;;;;;;5053026;28;20045;-72
2022/07/18 11:36:15;;;;;;;6.13;3.40;;;27.30;94.40;;;;;;5052593;28;20378;-72
2022/07/18 11:38:56;;;;;;;6.65;2.45;;;27.20;94.40;;;;;;5036496;28;20307;-72
2022/07/18 11:41:22;;;;;;;4.05;2.63;;;27.30;94.60;;;;;;5052954;28;20044;-71
2022/07/18 11:43:49;;;;;;;7.28;2.33;;;27.60;94.70;;;;;;5052328;28;20462;-70
2022/07/18 11:46:17;;;;;;;5.88;2.63;;;27.70;94.70;;;;;;5070752;28;20075;-72
2022/07/18 11:48:45;;;;;;;4.90;2.42;;;27.50;94.70;;;;;;5052694;28;20414;-72
2022/07/18 11:51:16;;;;;;;5.80;2.70;;;27.90;94.70;;;;;;5052779;28;20094;-72
2022/07/18 11:53:46;;;;;;;8.52;2.80;;;27.50;94.30;;;;;;5071250;28;20377;-72
2022/07/18 11:56:12;;;;;;;6.50;2.85;;;27.50;94.30;;;;;;5071367;28;20071;-72
2022/07/18 11:58:40;;;;;;;6.53;2.95;;;27.30;94.70;;;;;;5070235;28;20468;-72
2022/07/18 12:01:06;;;;;;;4.63;2.55;;;27.40;95.00;;;;;;5053414;28;20111;-70
2022/07/18 12:03:35;;;;;;;4.68;2.70;;;27.80;95.40;;;;;;5069927;28;20043;-71
2022/07/18 12:06:14;;;;;;;5.88;2.50;;;27.60;95.00;;;;;;5053259;28;20044;-71
2022/07/18 12:08:45;;;;;;;4.95;2.53;;;27.60;94.40;;;;;;5080839;28;20090;-70
2022/07/18 12:11:15;;;;;;;4.03;2.22;;;27.80;94.60;;;;;;5058345;28;20115;-70
2022/07/18 12:13:58;;;;;;;6.65;2.60;;;27.90;96.60;;;;;;5091552;28;20090;-71
2022/07/18 12:16:24;;;;;;;6.43;2.88;;;27.80;99.10;;;;;;5073568;28;20046;-70
2022/07/18 12:19:14;;;;;;;7.13;2.58;;;27.90;98.10;;;;;;5073514;28;20032;-71
2022/07/18 12:22:05;;;;;;;4.97;2.67;;;28.10;96.90;;;;;;5091390;28;20058;-71
2022/07/18 12:24:56;;;;;;;4.15;2.65;;;28.30;96.60;;;;;;5091462;28;20040;-71
2022/07/18 12:27:31;;;;;;;4.95;2.30;;;28.40;94.70;;;;;;5073579;28;20416;-71
2022/07/18 12:30:11;;;;;;;7.53;2.55;;;28.20;94.90;;;;;;5050613;28;20082;-71
2022/07/18 12:33:07;;;;;;;3.17;2.35;;;28.50;96.50;;;;;;5067789;28;20646;-70
2022/07/18 12:35:35;;;;;;;4.57;2.28;;;28.30;99.40;;;;;;5057102;28;20115;-71
2022/07/18 12:38:04;;;;;;;4.60;2.15;;;28.40;99.90;;;;;;5053523;28;20043;-71
2022/07/18 12:40:45;;;;;;;6.78;2.53;;;28.60;98.50;;;;;;5071218;28;20117;-71
2022/07/18 12:43:31;;;;;;;5.10;2.20;;;28.70;93.80;;;;;;5038104;28;20049;-71
2022/07/18 12:45:59;;;;;;;7.55;2.40;;;30.10;94.10;;;;;;5033226;28;20041;-71
2022/07/18 12:48:27;;;;;;;8.50;3.08;;;28.70;94.20;;;;;;5033094;28;20045;-71
2022/07/18 12:51:10;;;;;;;4.72;2.35;;;29.30;93.60;;;;;;5016662;28;20045;-70
2022/07/18 12:53:38;;;;;;;7.55;3.03;;;28.50;93.00;;;;;;5020208;28;20033;-71
2022/07/18 12:56:05;;;;;;;5.53;3.25;;;28.40;93.40;;;;;;5036521;28;20171;-72
2022/07/18 12:58:30;;;;;;;4.30;2.30;;;27.90;93.60;;;;;;5036731;28;20044;-71